GEG weather

Spokane International Airport
Spokane, Washington, United States

Public forecast

Using degrees Fahrenheit for public forecast. Weather courtesy of forecast.io.

METAR (pilot weather report)

Retrieved 2019/06/16 07:53 UTC (38 minutes ago):

KGEG 160753Z 25006KT 10SM FEW100 BKN120 BKN150 21/11 A2992 RMK AO2 SLP113 T02060106 402890128

TAF (pilot weather forecast)

Retrieved 2019/06/16 06:24 UTC (2 hours ago):

TAF KGEG 160520Z 1606/1706 18004KT P6SM SCT120 FM161900 23007KT P6SM FEW070 SCT120 FM170200 23005KT P6SM SCT070 BKN120